Time;durP1;ratioP1;P1;durP2;ratioP2;P2;SDS_P1;SDS_P2;PMS_P1;PMS_P2;Temp;Humidity;BMP_temperature;BMP_pressure;BME280_temperature;BME280_humidity;BME280_pressure;Samples;Min_cycle;Max_cycle;Signal;HPM_P1;HPM_P2
2022/04/22 00:00:30;;;;;;;4.53;2.95;;;10.70;99.90;;;;;;5021389;28;20041;-79
2022/04/22 00:02:55;;;;;;;5.18;2.97;;;10.60;99.90;;;;;;5038513;28;20098;-79
2022/04/22 00:05:21;;;;;;;5.72;3.55;;;10.60;99.90;;;;;;5056189;28;20112;-79
2022/04/22 00:07:47;;;;;;;9.38;3.97;;;10.50;99.90;;;;;;5039815;28;20048;-79
2022/04/22 00:10:13;;;;;;;12.57;4.13;;;10.40;99.90;;;;;;5038482;28;20480;-79
2022/04/22 00:12:38;;;;;;;9.30;4.45;;;10.30;99.90;;;;;;5038763;28;20087;-79
2022/04/22 00:15:05;;;;;;;11.70;4.55;;;10.30;99.90;;;;;;5039030;28;20053;-79
2022/04/22 00:17:31;;;;;;;7.10;4.43;;;10.30;99.90;;;;;;5039151;28;20527;-79
2022/04/22 00:19:56;;;;;;;11.65;5.05;;;10.20;99.90;;;;;;5056761;28;20124;-78
2022/04/22 00:22:23;;;;;;;9.98;4.38;;;10.20;99.90;;;;;;5039727;28;20116;-79
2022/04/22 00:24:48;;;;;;;12.48;6.53;;;10.20;99.90;;;;;;5039308;28;20064;-79
2022/04/22 00:27:14;;;;;;;9.52;4.90;;;10.10;99.90;;;;;;5042474;28;20095;-79
2022/04/22 00:29:40;;;;;;;14.85;5.15;;;10.10;99.90;;;;;;5025192;28;20045;-79
2022/04/22 00:32:05;;;;;;;8.38;4.82;;;10.10;99.90;;;;;;5041629;28;20043;-79
2022/04/22 00:34:31;;;;;;;12.35;5.63;;;10.10;99.90;;;;;;5042097;28;20087;-79
2022/04/22 00:36:57;;;;;;;14.75;5.50;;;10.10;99.90;;;;;;5042017;28;20041;-79
2022/04/22 00:39:22;;;;;;;13.27;6.35;;;10.00;99.90;;;;;;5058785;28;20066;-78
2022/04/22 00:41:48;;;;;;;8.00;4.68;;;10.00;99.90;;;;;;5040562;28;20044;-79
2022/04/22 00:44:13;;;;;;;9.10;4.88;;;10.00;99.90;;;;;;5041811;28;20041;-79
2022/04/22 00:46:39;;;;;;;10.23;5.10;;;10.00;99.90;;;;;;5023746;28;20048;-78
2022/04/22 00:49:05;;;;;;;7.20;4.75;;;9.90;99.90;;;;;;5024917;28;20040;-79
2022/04/22 00:51:30;;;;;;;12.10;5.55;;;9.90;99.90;;;;;;5059995;28;20361;-79
2022/04/22 00:53:56;;;;;;;9.70;4.65;;;9.90;99.90;;;;;;5041738;28;20044;-79
2022/04/22 00:56:22;;;;;;;11.27;5.35;;;9.90;99.90;;;;;;5024721;28;20045;-79
2022/04/22 00:58:49;;;;;;;13.27;5.88;;;9.90;99.90;;;;;;5040654;28;20056;-79
2022/04/22 01:01:15;;;;;;;10.45;4.97;;;9.90;99.90;;;;;;5057479;28;20048;-79
2022/04/22 01:09:47;;;;;;;11.40;4.95;;;9.80;99.90;;;;;;5039764;28;20041;-79
2022/04/22 01:12:02;;;;;;;13.18;4.72;;;9.80;99.90;;;;;;5039479;28;20063;-79
2022/04/22 01:14:28;;;;;;;9.82;5.68;;;9.70;99.90;;;;;;5039577;28;20041;-79
2022/04/22 01:16:55;;;;;;;13.18;6.40;;;9.70;99.90;;;;;;5023562;28;20047;-78
2022/04/22 01:19:20;;;;;;;11.32;4.93;;;9.70;99.90;;;;;;5024434;28;20048;-79
2022/04/22 01:21:46;;;;;;;10.27;5.40;;;9.70;99.90;;;;;;5039321;28;20045;-79
2022/04/22 01:24:11;;;;;;;19.88;7.28;;;9.60;99.90;;;;;;5023634;28;20041;-79
2022/04/22 01:26:37;;;;;;;11.02;6.50;;;9.60;99.90;;;;;;5039506;28;20056;-78
2022/04/22 01:29:03;;;;;;;10.68;5.68;;;9.50;99.90;;;;;;5022128;28;20496;-79
2022/04/22 01:31:29;;;;;;;12.85;5.32;;;9.50;99.90;;;;;;5037242;28;20079;-79
2022/04/22 01:33:54;;;;;;;13.38;6.28;;;9.50;99.90;;;;;;5037383;28;20076;-79
2022/04/22 01:36:21;;;;;;;10.55;5.53;;;9.50;99.90;;;;;;5037915;28;20099;-79
2022/04/22 01:38:47;;;;;;;11.77;7.28;;;9.40;99.90;;;;;;5037367;28;20103;-79
2022/04/22 01:41:12;;;;;;;19.15;7.53;;;9.40;99.90;;;;;;5019964;28;20063;-79
2022/04/22 01:43:38;;;;;;;13.50;6.32;;;9.40;99.90;;;;;;5037034;28;20442;-79
2022/04/22 01:46:04;;;;;;;11.38;6.38;;;9.30;99.90;;;;;;5035014;28;20522;-79
2022/04/22 01:48:30;;;;;;;14.70;7.53;;;9.30;99.90;;;;;;5035632;28;20051;-79
2022/04/22 01:50:56;;;;;;;12.07;6.35;;;9.20;99.90;;;;;;5034748;28;20123;-79
2022/04/22 01:53:22;;;;;;;17.25;6.60;;;9.20;99.90;;;;;;5035676;28;20124;-79
2022/04/22 01:55:48;;;;;;;14.80;6.60;;;9.10;99.90;;;;;;5019514;28;20044;-79
2022/04/22 01:58:13;;;;;;;14.65;8.15;;;9.10;99.90;;;;;;5017730;28;20668;-79
2022/04/22 02:00:39;;;;;;;15.18;6.85;;;9.00;99.90;;;;;;5036113;28;20086;-79
2022/04/22 02:03:05;;;;;;;12.95;7.55;;;9.00;99.90;;;;;;5054149;28;20519;-79
2022/04/22 02:05:32;;;;;;;17.02;8.00;;;9.00;99.90;;;;;;5019962;28;20037;-79
2022/04/22 02:07:57;;;;;;;17.48;8.15;;;8.90;99.90;;;;;;5036671;28;20067;-79
2022/04/22 02:10:23;;;;;;;15.18;6.93;;;8.90;99.90;;;;;;5036581;28;20037;-79
2022/04/22 02:12:49;;;;;;;16.23;8.18;;;8.90;99.90;;;;;;5036314;28;20476;-79
2022/04/22 02:15:16;;;;;;;15.02;7.68;;;8.80;99.90;;;;;;5036626;28;20088;-79
2022/04/22 02:17:42;;;;;;;17.77;9.05;;;8.70;99.90;;;;;;5036665;28;20120;-78
2022/04/22 02:20:08;;;;;;;22.77;9.13;;;8.70;99.90;;;;;;5037211;28;20472;-79
2022/04/22 02:22:34;;;;;;;18.38;7.90;;;8.70;99.90;;;;;;5020583;28;20045;-79
2022/04/22 02:25:00;;;;;;;16.20;7.75;;;8.70;99.90;;;;;;5036494;28;20044;-79
2022/04/22 02:30:11;;;;;;;20.33;8.85;;;8.60;99.90;;;;;;5037767;28;20099;-79
2022/04/22 02:32:37;;;;;;;20.13;8.82;;;8.60;99.90;;;;;;5039795;28;20037;-79
2022/04/22 02:35:02;;;;;;;21.92;8.27;;;8.60;99.90;;;;;;5039453;28;20555;-79
2022/04/22 02:37:28;;;;;;;15.18;7.93;;;8.50;99.90;;;;;;5038756;28;20411;-79
2022/04/22 02:39:54;;;;;;;16.88;8.20;;;8.50;99.90;;;;;;5040049;28;20037;-79
2022/04/22 02:47:48;;;;;;;20.60;8.73;;;8.40;99.90;;;;;;5038538;28;20132;-79
2022/04/22 02:50:14;;;;;;;19.67;8.48;;;8.40;99.90;;;;;;5038404;28;20091;-79
2022/04/22 02:52:39;;;;;;;19.40;8.57;;;8.40;99.90;;;;;;5021558;28;20045;-79
2022/04/22 02:55:05;;;;;;;19.67;7.32;;;8.30;99.90;;;;;;5038030;28;20196;-79
2022/04/22 02:57:31;;;;;;;22.30;8.25;;;8.40;99.90;;;;;;5036893;28;20400;-79
2022/04/22 02:59:57;;;;;;;15.30;8.55;;;8.40;99.90;;;;;;5021973;28;20048;-79
2022/04/22 03:02:22;;;;;;;16.08;8.70;;;8.40;99.90;;;;;;5039449;28;20048;-79
2022/04/22 03:04:48;;;;;;;15.65;8.13;;;8.30;99.90;;;;;;5022022;28;20101;-78
2022/04/22 03:07:13;;;;;;;19.58;8.00;;;8.30;99.90;;;;;;5039259;28;20045;-79
2022/04/22 03:09:39;;;;;;;18.13;7.32;;;8.30;99.90;;;;;;5041573;28;20041;-79
2022/04/22 03:12:05;;;;;;;20.05;8.48;;;8.30;99.90;;;;;;5028485;28;20036;-79
2022/04/22 03:14:30;;;;;;;18.88;7.43;;;8.30;99.90;;;;;;5045860;28;20087;-79
2022/04/22 03:16:56;;;;;;;23.25;8.73;;;8.20;99.90;;;;;;5044625;28;20037;-79
2022/04/22 03:19:22;;;;;;;18.08;8.18;;;8.30;99.90;;;;;;5044244;28;20047;-78
2022/04/22 03:21:47;;;;;;;18.65;9.00;;;8.20;99.90;;;;;;5027647;28;20068;-79
2022/04/22 03:24:13;;;;;;;18.95;8.15;;;8.20;99.90;;;;;;5046528;28;20048;-79
2022/04/22 03:26:39;;;;;;;15.38;7.88;;;8.10;99.90;;;;;;5029542;28;20037;-78
2022/04/22 03:29:04;;;;;;;17.02;7.95;;;8.20;99.90;;;;;;5047007;28;20071;-79
2022/04/22 03:31:30;;;;;;;20.45;7.93;;;8.10;99.90;;;;;;5045835;28;20041;-79
2022/04/22 03:33:55;;;;;;;19.55;7.80;;;8.10;99.90;;;;;;5047622;28;20071;-79
2022/04/22 03:36:21;;;;;;;15.65;7.32;;;8.00;99.90;;;;;;5064005;28;20115;-79
2022/04/22 03:38:46;;;;;;;19.45;8.13;;;7.90;99.90;;;;;;5046406;28;20053;-79
2022/04/22 03:41:12;;;;;;;16.40;7.72;;;7.90;99.90;;;;;;5047025;28;20040;-79
2022/04/22 03:43:40;;;;;;;16.10;7.90;;;7.90;99.90;;;;;;5047125;28;20478;-79
2022/04/22 03:46:09;;;;;;;21.85;7.13;;;7.80;99.90;;;;;;5046393;28;20119;-78
2022/04/22 03:48:34;;;;;;;19.90;7.10;;;7.80;99.90;;;;;;5045933;28;20124;-79
2022/04/22 03:51:00;;;;;;;17.20;7.07;;;7.70;99.90;;;;;;5046297;28;20068;-79
2022/04/22 03:53:25;;;;;;;14.18;6.97;;;7.70;99.90;;;;;;5030664;28;20069;-79
2022/04/22 03:55:51;;;;;;;14.38;7.00;;;7.60;99.90;;;;;;5046820;28;20070;-79
2022/04/22 03:58:17;;;;;;;17.83;7.32;;;7.60;99.90;;;;;;5047157;28;20043;-79
2022/04/22 04:00:48;;;;;;;13.70;6.65;;;7.60;99.90;;;;;;5064644;28;20405;-79
2022/04/22 04:03:23;;;;;;;20.13;6.43;;;7.60;99.90;;;;;;5047790;28;20037;-79
2022/04/22 04:05:51;;;;;;;15.55;6.53;;;7.60;99.90;;;;;;5046866;28;20076;-79
2022/04/22 04:08:18;;;;;;;13.30;6.35;;;7.60;99.90;;;;;;5030477;28;20052;-79
2022/04/22 04:16:12;;;;;;;10.73;5.90;;;7.50;99.90;;;;;;5044481;28;20084;-79
2022/04/22 04:18:38;;;;;;;13.48;6.07;;;7.40;99.90;;;;;;5028102;28;20037;-79
2022/04/22 04:23:51;;;;;;;9.75;5.30;;;7.40;99.90;;;;;;5046640;28;20052;-78
2022/04/22 04:26:18;;;;;;;15.05;6.78;;;7.40;99.90;;;;;;5044884;28;20068;-79
2022/04/22 04:28:47;;;;;;;9.57;5.72;;;7.30;99.90;;;;;;5042558;28;20055;-79
2022/04/22 04:31:13;;;;;;;11.88;5.50;;;7.40;99.90;;;;;;5040998;28;20124;-78
2022/04/22 04:33:39;;;;;;;12.38;5.75;;;7.40;99.90;;;;;;5042023;28;20041;-78
2022/04/22 04:36:06;;;;;;;12.80;5.50;;;7.40;99.90;;;;;;5044751;28;20519;-78
2022/04/22 04:38:32;;;;;;;9.45;5.68;;;7.30;99.90;;;;;;5045213;28;20040;-79
2022/04/22 04:40:58;;;;;;;13.32;5.32;;;7.40;99.90;;;;;;5047558;28;20052;-79
2022/04/22 04:43:25;;;;;;;10.43;5.07;;;7.30;99.90;;;;;;5042661;28;20040;-78
2022/04/22 04:45:51;;;;;;;17.55;5.57;;;7.30;99.90;;;;;;5038016;28;20037;-79
2022/04/22 04:48:17;;;;;;;11.40;4.88;;;7.30;99.90;;;;;;5037124;28;20051;-79
2022/04/22 04:50:43;;;;;;;10.05;5.07;;;7.40;99.90;;;;;;5037024;28;20040;-79
2022/04/22 04:53:13;;;;;;;8.85;4.68;;;7.40;99.90;;;;;;5021054;28;20041;-79
2022/04/22 04:55:39;;;;;;;9.07;5.40;;;7.40;99.90;;;;;;5039138;28;20052;-79
2022/04/22 04:58:06;;;;;;;12.35;4.72;;;7.50;99.90;;;;;;5038818;28;20045;-79
2022/04/22 05:00:32;;;;;;;7.95;4.85;;;7.70;99.90;;;;;;5038284;28;20045;-79
2022/04/22 05:02:57;;;;;;;10.05;4.55;;;7.80;99.90;;;;;;5038878;28;20044;-79
2022/04/22 05:05:23;;;;;;;14.93;5.05;;;8.10;99.90;;;;;;5041125;28;20037;-80
2022/04/22 05:07:56;;;;;;;16.77;7.05;;;8.20;99.90;;;;;;5023293;28;20469;-79
2022/04/22 05:10:22;;;;;;;8.55;4.70;;;8.40;99.90;;;;;;5040152;28;20483;-79
2022/04/22 05:12:48;;;;;;;11.23;4.30;;;8.60;99.90;;;;;;5040832;28;20052;-80
2022/04/22 05:15:14;;;;;;;9.85;4.75;;;8.70;99.90;;;;;;5043285;28;20536;-80
2022/04/22 05:17:41;;;;;;;11.38;4.80;;;8.60;99.90;;;;;;5017822;28;20117;-80
2022/04/22 05:20:12;;;;;;;9.27;4.13;;;8.60;99.90;;;;;;5036955;28;20034;-80
2022/04/22 05:22:39;;;;;;;8.98;3.50;;;8.50;99.90;;;;;;5019144;28;20186;-80
2022/04/22 05:25:06;;;;;;;14.15;4.03;;;8.40;99.90;;;;;;5002544;28;20079;-79
2022/04/22 05:27:32;;;;;;;8.38;3.80;;;8.40;99.90;;;;;;5021435;28;20041;-80
2022/04/22 05:32:47;;;;;;;9.05;4.13;;;8.30;99.90;;;;;;5021358;28;20477;-80
2022/04/22 05:35:14;;;;;;;8.50;4.05;;;8.20;99.90;;;;;;5005648;28;20041;-79
2022/04/22 05:37:49;;;;;;;8.05;3.47;;;8.20;99.90;;;;;;5005833;28;20080;-79
2022/04/22 05:40:17;;;;;;;7.68;4.40;;;8.20;99.90;;;;;;5022817;28;20076;-83
2022/04/22 05:42:44;;;;;;;10.30;3.75;;;8.20;99.90;;;;;;5005116;28;20120;-80
2022/04/22 05:45:11;;;;;;;7.57;3.92;;;8.20;99.90;;;;;;5004959;28;20071;-79
2022/04/22 05:47:37;;;;;;;14.30;4.28;;;8.20;99.90;;;;;;5020566;28;20064;-80
2022/04/22 05:50:05;;;;;;;6.28;3.85;;;8.20;99.90;;;;;;5019675;28;20041;-80
2022/04/22 05:52:35;;;;;;;6.30;3.70;;;8.30;99.90;;;;;;5018816;28;20108;-79
2022/04/22 05:55:02;;;;;;;9.40;2.90;;;8.40;99.90;;;;;;5020287;28;20041;-80
2022/04/22 05:57:31;;;;;;;7.53;4.22;;;8.40;99.90;;;;;;5002810;28;20065;-80
2022/04/22 05:59:59;;;;;;;7.55;3.58;;;8.40;99.90;;;;;;5002439;28;20124;-80
2022/04/22 06:02:25;;;;;;;5.45;2.83;;;8.50;99.90;;;;;;5020250;28;20048;-79
2022/04/22 06:04:50;;;;;;;9.43;3.35;;;8.50;99.90;;;;;;5019320;28;20365;-80
2022/04/22 06:07:17;;;;;;;11.15;3.63;;;8.60;99.90;;;;;;5004994;28;20051;-79
2022/04/22 06:12:27;;;;;;;6.97;3.35;;;8.70;99.90;;;;;;5018821;28;20511;-80
2022/04/22 06:14:53;;;;;;;7.53;3.60;;;8.90;99.90;;;;;;5036720;28;20041;-79
2022/04/22 06:17:19;;;;;;;8.80;4.20;;;9.00;99.90;;;;;;5002373;28;20041;-79
2022/04/22 06:19:44;;;;;;;8.15;3.05;;;9.20;99.90;;;;;;5019264;28;20088;-79
2022/04/22 06:22:10;;;;;;;7.18;3.63;;;9.30;99.90;;;;;;5020147;28;20037;-79
2022/04/22 06:24:35;;;;;;;8.80;3.60;;;9.40;99.90;;;;;;5002515;28;20458;-79
2022/04/22 06:27:01;;;;;;;7.65;4.00;;;9.40;99.90;;;;;;5004452;28;20049;-78
2022/04/22 06:29:26;;;;;;;8.38;3.25;;;9.50;99.90;;;;;;5019371;28;20041;-78
2022/04/22 06:31:54;;;;;;;6.80;2.95;;;9.50;99.90;;;;;;5019428;28;20444;-78
2022/04/22 06:34:20;;;;;;;7.45;3.33;;;9.60;99.90;;;;;;5024650;28;20095;-78
2022/04/22 06:36:45;;;;;;;9.77;3.58;;;9.60;99.90;;;;;;5025265;28;20404;-78
2022/04/22 06:39:12;;;;;;;6.88;3.75;;;9.60;99.90;;;;;;5007558;28;20078;-78
2022/04/22 06:47:07;;;;;;;12.57;3.83;;;10.20;99.90;;;;;;5028668;28;20064;-79
2022/04/22 06:49:33;;;;;;;10.77;4.32;;;10.40;99.90;;;;;;5027746;28;20041;-78
2022/04/22 06:51:58;;;;;;;5.90;3.50;;;10.80;99.90;;;;;;5027182;28;20072;-78
2022/04/22 06:54:24;;;;;;;4.00;3.00;;;11.30;99.90;;;;;;5025991;28;20045;-79
2022/04/22 06:56:50;;;;;;;5.35;3.03;;;11.70;99.90;;;;;;5023466;28;20059;-79
2022/04/22 06:59:21;;;;;;;8.05;3.38;;;11.60;99.90;;;;;;5041352;28;20091;-78
2022/04/22 07:01:47;;;;;;;7.00;3.70;;;11.50;99.90;;;;;;5020874;28;20508;-78
2022/04/22 07:04:13;;;;;;;7.90;3.72;;;11.50;99.90;;;;;;5051054;28;20037;-78
2022/04/22 07:06:39;;;;;;;7.43;3.30;;;11.40;99.90;;;;;;5024350;28;20050;-78
2022/04/22 07:09:05;;;;;;;6.78;3.40;;;11.30;99.90;;;;;;5025800;28;20416;-78
2022/04/22 07:11:31;;;;;;;5.50;3.17;;;11.20;99.90;;;;;;5026602;28;20033;-78
2022/04/22 07:13:59;;;;;;;6.07;2.90;;;11.20;99.90;;;;;;5040591;28;20049;-79
2022/04/22 07:16:24;;;;;;;6.68;3.38;;;11.40;99.90;;;;;;5040553;28;20046;-79
2022/04/22 07:18:53;;;;;;;5.45;3.38;;;11.90;99.90;;;;;;5026529;28;20097;-78
2022/04/22 07:21:20;;;;;;;8.38;3.80;;;12.50;99.90;;;;;;5036768;28;20046;-78
2022/04/22 07:23:46;;;;;;;5.75;3.55;;;12.90;99.90;;;;;;5050121;28;20060;-78
2022/04/22 07:26:12;;;;;;;6.75;3.60;;;13.30;99.90;;;;;;5027066;28;20073;-79
2022/04/22 07:28:38;;;;;;;6.72;3.03;;;13.60;99.90;;;;;;5028324;28;20096;-78
2022/04/22 07:31:05;;;;;;;5.82;3.47;;;13.90;99.90;;;;;;5051388;28;20060;-78
2022/04/22 07:33:31;;;;;;;4.65;3.00;;;14.10;99.90;;;;;;5015544;28;20041;-79
2022/04/22 07:35:57;;;;;;;7.03;3.28;;;14.40;99.90;;;;;;5040085;28;20480;-78
2022/04/22 07:38:24;;;;;;;5.70;3.45;;;14.80;99.90;;;;;;5025592;28;20479;-78
2022/04/22 07:40:50;;;;;;;5.85;3.35;;;15.10;99.90;;;;;;5019314;28;20045;-79
2022/04/22 07:48:47;;;;;;;5.90;2.78;;;15.20;99.90;;;;;;5037899;28;20074;-79
2022/04/22 07:51:13;;;;;;;7.50;3.03;;;15.50;99.90;;;;;;5036142;28;20044;-79
2022/04/22 07:53:39;;;;;;;7.95;3.92;;;15.50;99.90;;;;;;5038907;28;20040;-79
2022/04/22 07:56:05;;;;;;;6.68;3.28;;;15.60;99.90;;;;;;5039101;28;20064;-80
2022/04/22 07:58:33;;;;;;;6.80;3.67;;;15.70;99.90;;;;;;5042014;28;20562;-80
2022/04/22 08:00:59;;;;;;;10.45;3.05;;;15.80;99.90;;;;;;5041354;28;20060;-80
2022/04/22 08:03:26;;;;;;;5.22;3.00;;;15.70;99.90;;;;;;5040755;28;20495;-79
2022/04/22 08:05:51;;;;;;;5.38;2.90;;;15.50;99.90;;;;;;5024111;28;20473;-80
2022/04/22 08:08:17;;;;;;;3.80;2.53;;;15.60;99.90;;;;;;5025443;28;20067;-79
2022/04/22 08:10:44;;;;;;;4.50;2.92;;;15.50;99.90;;;;;;5023061;28;20041;-77
2022/04/22 08:13:10;;;;;;;5.20;2.90;;;15.60;99.90;;;;;;5040392;28;21627;-78
2022/04/22 08:15:36;;;;;;;5.10;2.88;;;15.80;99.90;;;;;;5023750;28;20510;-78
2022/04/22 08:18:03;;;;;;;4.53;2.33;;;15.90;99.90;;;;;;5019602;28;20384;-75
2022/04/22 08:20:33;;;;;;;4.85;2.72;;;15.80;99.90;;;;;;5035875;28;20049;-75
2022/04/22 08:22:59;;;;;;;3.90;2.53;;;15.90;99.90;;;;;;5014918;28;20050;-75
2022/04/22 08:25:25;;;;;;;3.17;2.40;;;16.00;99.90;;;;;;5031469;28;20040;-75
2022/04/22 08:27:51;;;;;;;9.93;3.83;;;16.10;99.90;;;;;;5034480;28;20065;-74
2022/04/22 08:30:17;;;;;;;4.47;2.65;;;16.00;99.90;;;;;;5034900;28;20056;-74
2022/04/22 08:32:43;;;;;;;4.88;2.70;;;15.70;99.90;;;;;;5019587;28;20046;-75
2022/04/22 08:35:09;;;;;;;4.13;2.25;;;15.90;99.60;;;;;;5015630;28;20156;-75
2022/04/22 08:37:37;;;;;;;5.35;2.58;;;16.10;99.90;;;;;;5016254;28;20132;-76
2022/04/22 08:40:05;;;;;;;6.32;2.08;;;16.10;99.70;;;;;;5015172;28;20450;-76
2022/04/22 08:42:34;;;;;;;4.72;2.67;;;16.20;99.20;;;;;;5015816;28;20413;-74
2022/04/22 08:45:00;;;;;;;2.42;2.03;;;16.40;97.60;;;;;;5015248;28;20037;-74
2022/04/22 08:50:13;;;;;;;5.53;1.90;;;16.80;97.00;;;;;;5044518;28;20057;-74
2022/04/22 08:52:42;;;;;;;5.68;2.20;;;17.00;97.20;;;;;;5015276;28;20034;-76
2022/04/22 08:55:08;;;;;;;3.53;2.10;;;17.30;95.50;;;;;;5015625;28;20046;-75
2022/04/22 08:57:34;;;;;;;6.85;2.30;;;17.30;91.50;;;;;;5014617;28;20045;-73
2022/04/22 09:00:02;;;;;;;3.28;2.13;;;17.40;93.00;;;;;;5042290;28;20083;-74
2022/04/22 09:02:28;;;;;;;3.53;1.80;;;17.30;93.20;;;;;;5042774;28;20114;-75
2022/04/22 09:04:54;;;;;;;4.50;2.33;;;17.30;92.30;;;;;;5015593;28;20183;-75
2022/04/22 09:07:22;;;;;;;3.25;2.22;;;17.10;92.10;;;;;;5014232;28;20060;-76
2022/04/22 09:09:49;;;;;;;5.85;2.13;;;17.30;91.50;;;;;;5041138;28;20041;-76
2022/04/22 09:12:20;;;;;;;5.70;2.30;;;17.40;90.30;;;;;;5013886;28;20037;-74
2022/04/22 09:14:47;;;;;;;1.90;1.70;;;17.70;89.40;;;;;;5013070;28;20048;-75
2022/04/22 09:17:33;;;;;;;5.90;2.03;;;17.90;84.00;;;;;;5032986;28;20448;-74
2022/04/22 09:20:01;;;;;;;10.15;4.05;;;18.00;73.00;;;;;;5014977;28;20041;-76
2022/04/22 09:22:31;;;;;;;3.70;1.70;;;18.20;82.50;;;;;;5015891;28;20046;-74
2022/04/22 09:24:59;;;;;;;6.20;2.10;;;18.10;75.00;;;;;;5015437;28;20033;-76
2022/04/22 09:27:42;;;;;;;5.68;2.10;;;18.00;67.90;;;;;;5016204;28;20049;-76
2022/04/22 09:30:11;;;;;;;8.07;2.08;;;18.20;68.70;;;;;;5023617;28;20095;-78
2022/04/22 09:32:40;;;;;;;4.35;2.13;;;18.30;71.60;;;;;;5007948;28;20064;-78
2022/04/22 09:35:19;;;;;;;3.58;1.90;;;18.50;70.10;;;;;;5012983;28;20046;-77
2022/04/22 09:43:38;;;;;;;3.35;2.13;;;18.30;69.30;;;;;;5022028;28;20077;-78
2022/04/22 09:46:05;;;;;;;3.03;2.03;;;18.30;62.90;;;;;;5019284;28;20044;-78
2022/04/22 09:48:44;;;;;;;2.45;1.85;;;18.50;66.70;;;;;;5023955;28;20052;-77
2022/04/22 09:51:26;;;;;;;3.20;1.63;;;18.60;59.90;;;;;;5020619;28;20529;-79
2022/04/22 09:54:10;;;;;;;;;;;18.70;59.70;;;;;;5022645;28;20451;-77
2022/04/22 09:56:38;;;;;;;4.20;2.15;;;18.60;58.40;;;;;;5021258;28;19928;-78
2022/04/22 09:59:23;;;;;;;6.07;1.95;;;18.30;65.30;;;;;;5021575;28;20045;-78
2022/04/22 10:01:49;;;;;;;9.07;2.42;;;18.40;60.90;;;;;;5026329;28;20218;-78
2022/04/22 10:04:19;;;;;;;2.33;1.95;;;18.50;64.80;;;;;;5005475;28;20057;-76
2022/04/22 10:06:46;;;;;;;2.88;1.70;;;18.40;60.30;;;;;;5022387;28;20063;-77
2022/04/22 10:09:16;;;;;;;4.10;1.80;;;18.30;61.10;;;;;;5020186;28;20125;-78
2022/04/22 10:11:48;;;;;;;2.97;1.80;;;18.40;59.10;;;;;;5022713;28;20056;-76
2022/04/22 10:14:18;;;;;;;3.22;2.42;;;18.30;59.70;;;;;;5020158;28;20045;-77
2022/04/22 10:16:45;;;;;;;2.40;1.65;;;18.20;59.50;;;;;;5024042;28;20048;-77
2022/04/22 10:19:12;;;;;;;4.38;1.90;;;18.00;60.20;;;;;;5038959;28;20079;-77
2022/04/22 10:21:40;;;;;;;3.60;1.70;;;18.00;60.60;;;;;;5019185;28;20047;-80
2022/04/22 10:24:08;;;;;;;4.93;2.30;;;18.00;59.90;;;;;;5030558;28;20093;-79
2022/04/22 10:26:34;;;;;;;3.63;1.98;;;17.80;59.20;;;;;;5033739;28;20045;-79
2022/04/22 10:29:03;;;;;;;4.03;2.13;;;17.80;62.40;;;;;;5033146;28;20068;-78
2022/04/22 10:31:29;;;;;;;4.68;2.38;;;17.80;62.20;;;;;;5031025;28;20037;-79
2022/04/22 10:34:08;;;;;;;2.03;1.85;;;17.90;63.80;;;;;;5052070;28;20116;-79
2022/04/22 10:36:34;;;;;;;3.55;2.35;;;17.80;57.20;;;;;;5036928;28;20041;-79
2022/04/22 10:39:00;;;;;;;5.00;2.15;;;17.80;63.60;;;;;;5035750;28;20064;-78
2022/04/22 10:41:25;;;;;;;3.25;2.47;;;17.80;62.50;;;;;;5032008;28;20105;-80
2022/04/22 10:49:37;;;;;;;7.18;2.67;;;18.10;60.20;;;;;;5034159;28;20045;-79
2022/04/22 10:52:13;;;;;;;6.00;1.90;;;18.20;60.60;;;;;;5032469;28;20048;-79
2022/04/22 10:55:05;;;;;;;5.45;2.33;;;18.40;60.60;;;;;;5029944;28;20041;-79
2022/04/22 10:57:35;;;;;;;3.75;2.08;;;18.50;59.60;;;;;;5004348;28;20046;-78
2022/04/22 11:00:08;;;;;;;6.35;2.78;;;18.70;61.60;;;;;;5001438;28;20117;-78
2022/04/22 11:02:34;;;;;;;4.80;2.50;;;18.70;60.00;;;;;;5015237;28;20045;-78
2022/04/22 11:05:33;;;;;;;9.82;2.25;;;18.60;60.40;;;;;;5016223;28;20094;-78
2022/04/22 11:08:00;;;;;;;5.95;2.28;;;18.50;57.90;;;;;;5017978;28;20128;-78
2022/04/22 11:10:27;;;;;;;4.45;2.08;;;18.40;59.70;;;;;;5016037;28;20524;-78
2022/04/22 11:13:00;;;;;;;3.88;2.55;;;18.20;60.20;;;;;;5022623;28;20096;-78
2022/04/22 11:15:44;;;;;;;5.28;2.47;;;18.30;60.00;;;;;;5038566;28;20046;-78
2022/04/22 11:18:10;;;;;;;5.40;2.20;;;18.50;63.40;;;;;;4999496;28;20504;-78
2022/04/22 11:20:44;;;;;;;4.10;2.42;;;18.40;61.50;;;;;;5016693;28;20408;-78
2022/04/22 11:23:14;;;;;;;4.55;2.65;;;18.30;62.10;;;;;;5001563;28;20049;-78
2022/04/22 11:25:41;;;;;;;5.18;2.58;;;18.50;64.10;;;;;;5018261;28;20484;-78
2022/04/22 11:28:08;;;;;;;4.88;2.88;;;18.60;62.10;;;;;;5022995;28;20057;-79
2022/04/22 11:30:34;;;;;;;13.95;2.70;;;18.60;61.60;;;;;;5021104;28;20052;-79
2022/04/22 11:33:21;;;;;;;4.53;2.40;;;18.60;62.00;;;;;;5022901;28;20041;-78
2022/04/22 11:35:50;;;;;;;4.38;2.60;;;18.60;59.40;;;;;;5020830;28;20511;-79
2022/04/22 11:38:16;;;;;;;3.97;2.63;;;18.50;60.60;;;;;;5036482;28;20443;-78
2022/04/22 11:40:44;;;;;;;3.30;2.00;;;18.50;59.80;;;;;;5017145;28;20048;-78
2022/04/22 11:43:11;;;;;;;5.40;2.80;;;18.50;60.00;;;;;;5017340;28;20080;-78
2022/04/22 11:45:44;;;;;;;8.55;2.90;;;18.50;61.50;;;;;;5017388;28;20096;-79
2022/04/22 11:48:11;;;;;;;5.78;3.25;;;18.50;61.20;;;;;;5017681;28;20068;-79
2022/04/22 11:50:41;;;;;;;7.57;2.95;;;18.60;61.50;;;;;;5019641;28;20079;-79
2022/04/22 11:53:13;;;;;;;3.40;2.55;;;18.70;62.30;;;;;;5017923;28;20052;-78
2022/04/22 11:55:39;;;;;;;5.85;2.65;;;18.60;60.10;;;;;;5017579;28;20501;-78
2022/04/22 11:58:04;;;;;;;4.72;2.22;;;18.60;59.10;;;;;;5001049;28;20057;-78
2022/04/22 12:06:22;;;;;;;5.03;2.83;;;18.50;57.50;;;;;;4978751;28;20056;-78
2022/04/22 12:08:52;;;;;;;4.10;2.58;;;18.40;59.00;;;;;;5001884;28;20054;-78
2022/04/22 12:11:18;;;;;;;4.75;2.88;;;18.60;58.30;;;;;;5036587;28;20041;-78
2022/04/22 12:13:46;;;;;;;5.88;4.03;;;18.70;59.50;;;;;;5017251;28;20444;-78
2022/04/22 12:16:11;;;;;;;6.22;3.20;;;18.70;58.00;;;;;;5035785;28;20080;-78
2022/04/22 12:18:37;;;;;;;5.82;2.85;;;18.70;58.50;;;;;;5018189;28;20084;-78
2022/04/22 12:21:07;;;;;;;6.22;3.03;;;18.60;58.80;;;;;;5016308;28;20041;-77
2022/04/22 12:23:40;;;;;;;3.75;2.58;;;18.80;59.50;;;;;;5017774;28;20041;-78
2022/04/22 12:26:14;;;;;;;4.32;3.03;;;19.10;59.70;;;;;;5001105;28;20048;-78
2022/04/22 12:29:12;;;;;;;6.80;4.05;;;19.30;58.40;;;;;;5034609;28;20594;-77
2022/04/22 12:31:43;;;;;;;10.68;3.67;;;19.10;56.90;;;;;;5017616;28;20080;-79
2022/04/22 12:34:13;;;;;;;9.25;3.78;;;19.00;59.80;;;;;;5019394;28;20045;-79
2022/04/22 12:36:54;;;;;;;5.95;3.05;;;19.20;59.30;;;;;;5017852;28;20064;-79
2022/04/22 12:39:38;;;;;;;6.78;3.35;;;19.40;57.10;;;;;;5018077;28;20049;-78
2022/04/22 12:42:05;;;;;;;7.57;3.88;;;19.30;54.50;;;;;;5016378;28;20048;-79
2022/04/22 12:44:31;;;;;;;5.63;3.53;;;19.00;58.30;;;;;;5017571;28;20124;-77
2022/04/22 12:52:47;;;;;;;9.00;3.90;;;18.90;61.40;;;;;;5017761;28;20135;-78
2022/04/22 12:55:17;;;;;;;5.45;3.20;;;19.20;60.40;;;;;;5017305;28;20053;-79
2022/04/22 12:57:42;;;;;;;6.75;4.30;;;19.50;57.80;;;;;;5018530;28;20463;-79
2022/04/22 13:00:17;;;;;;;7.10;4.93;;;19.60;60.60;;;;;;5035365;28;20149;-79
2022/04/22 13:02:43;;;;;;;10.50;4.50;;;19.60;59.60;;;;;;5018076;28;20041;-78
2022/04/22 13:05:19;;;;;;;9.90;4.20;;;19.70;61.30;;;;;;5017681;28;20479;-80
2022/04/22 13:07:47;;;;;;;8.93;4.03;;;19.60;59.50;;;;;;5000930;28;20053;-78
2022/04/22 13:10:14;;;;;;;9.55;4.60;;;19.30;57.40;;;;;;5035359;28;20083;-79
2022/04/22 13:12:41;;;;;;;7.95;4.63;;;19.00;59.50;;;;;;5000606;28;20053;-78
2022/04/22 13:15:07;;;;;;;14.70;4.88;;;18.90;60.00;;;;;;5018019;28;20057;-78
2022/04/22 13:17:39;;;;;;;6.68;4.43;;;19.00;61.20;;;;;;5018257;28;20507;-78
2022/04/22 13:20:06;;;;;;;7.32;4.10;;;18.90;60.40;;;;;;5035228;28;20041;-79
2022/04/22 13:22:32;;;;;;;12.50;4.72;;;18.60;61.30;;;;;;5001914;28;20049;-79
2022/04/22 13:24:58;;;;;;;7.55;4.00;;;18.40;62.90;;;;;;5017487;28;20480;-78
2022/04/22 13:27:24;;;;;;;10.35;4.68;;;18.10;63.70;;;;;;5000156;28;20044;-78
2022/04/22 13:29:50;;;;;;;8.68;4.80;;;17.80;65.00;;;;;;5034466;28;20061;-78
2022/04/22 13:32:15;;;;;;;10.30;4.45;;;17.60;65.60;;;;;;5017171;28;20041;-78
2022/04/22 13:34:41;;;;;;;10.57;4.82;;;17.50;66.40;;;;;;5000869;28;20045;-78
2022/04/22 13:37:07;;;;;;;7.72;4.03;;;17.40;67.50;;;;;;5016427;28;20053;-78
2022/04/22 13:39:33;;;;;;;8.20;5.20;;;17.30;67.40;;;;;;5014872;28;20467;-78
2022/04/22 13:41:59;;;;;;;7.15;4.65;;;17.20;68.40;;;;;;5015243;28;20038;-78
2022/04/22 13:52:38;;;;;;;9.93;4.47;;;17.60;72.60;;;;;;5018612;28;20049;-78
2022/04/22 13:55:04;;;;;;;9.73;4.75;;;18.00;76.40;;;;;;5019781;28;20045;-78
2022/04/22 13:57:29;;;;;;;10.70;4.95;;;18.30;74.30;;;;;;5002820;28;20106;-78
2022/04/22 13:59:55;;;;;;;9.35;4.60;;;18.40;71.60;;;;;;5036517;28;20037;-77
2022/04/22 14:02:21;;;;;;;5.82;4.60;;;18.40;75.70;;;;;;5017936;28;20045;-78